Time;durP1;ratioP1;P1;durP2;ratioP2;P2;SDS_P1;SDS_P2;PMS_P1;PMS_P2;Temp;Humidity;BMP_temperature;BMP_pressure;BME280_temperature;BME280_humidity;BME280_pressure;Samples;Min_cycle;Max_cycle;Signal;HPM_P1;HPM_P2
2022/07/24 00:01:54;;;;;;;3.87;3.10;;;;;;;18.57;68.98;100225.64;1838909;77;21484;-73
2022/07/24 00:04:21;;;;;;;4.28;3.05;;;;;;;18.55;69.04;100226.84;1837902;77;20933;-73
2022/07/24 00:06:49;;;;;;;4.83;3.15;;;;;;;18.56;69.07;100231.17;1841120;77;21911;-72
2022/07/24 00:09:16;;;;;;;3.50;3.20;;;;;;;18.53;69.05;100224.34;1818227;77;20978;-73
2022/07/24 00:11:42;;;;;;;4.05;3.30;;;;;;;18.53;69.06;100228.35;1783549;79;20951;-72
2022/07/24 00:14:10;;;;;;;7.55;3.20;;;;;;;18.51;69.12;100229.01;1768635;81;21004;-72
2022/07/24 00:16:37;;;;;;;3.80;3.17;;;;;;;18.50;69.22;100225.17;1773564;79;21004;-71
2022/07/24 00:19:05;;;;;;;4.78;3.60;;;;;;;18.48;69.21;100222.69;1793459;79;21008;-73
2022/07/24 00:21:32;;;;;;;4.95;3.30;;;;;;;18.45;69.20;100221.71;1793032;78;20928;-72
2022/07/24 00:23:59;;;;;;;4.87;3.22;;;;;;;18.43;69.24;100221.53;1783911;79;20987;-72
2022/07/24 00:26:25;;;;;;;6.10;3.30;;;;;;;18.42;69.16;100210.52;1795881;79;21500;-73
2022/07/24 00:28:52;;;;;;;6.85;3.35;;;;;;;18.40;69.06;100212.54;1789801;79;20995;-72
2022/07/24 00:31:19;;;;;;;5.47;3.33;;;;;;;18.39;69.06;100209.03;1770081;81;21985;-72
2022/07/24 00:33:48;;;;;;;4.12;2.90;;;;;;;18.38;69.16;100205.20;1771577;79;20995;-73
2022/07/24 00:36:16;;;;;;;5.08;3.17;;;;;;;18.35;69.15;100204.23;1777320;79;21007;-73
2022/07/24 00:38:43;;;;;;;5.75;3.30;;;;;;;18.30;69.25;100202.06;1803031;79;21034;-72
2022/07/24 00:41:09;;;;;;;4.45;3.40;;;;;;;18.26;69.40;100203.44;1803516;79;20983;-74
2022/07/24 00:44:06;;;;;;;3.58;3.27;;;;;;;18.22;69.35;100199.44;1794782;79;21882;-73
2022/07/24 00:46:33;;;;;;;4.17;3.20;;;;;;;18.18;69.42;100196.29;1776469;79;21399;-72
2022/07/24 00:49:04;;;;;;;4.45;3.47;;;;;;;18.14;69.51;100196.30;1790797;79;20960;-72
2022/07/24 00:51:31;;;;;;;5.55;3.65;;;;;;;18.11;69.59;100197.16;1775258;79;21031;-72
2022/07/24 00:53:58;;;;;;;5.35;3.72;;;;;;;18.09;69.66;100196.50;1771999;79;21509;-72
2022/07/24 00:56:25;;;;;;;6.87;3.67;;;;;;;18.06;69.73;100186.17;1797013;79;21491;-73
2022/07/24 00:58:51;;;;;;;6.28;4.00;;;;;;;18.02;69.84;100181.66;1777905;79;21003;-73
2022/07/24 01:01:18;;;;;;;7.08;4.05;;;;;;;18.00;69.92;100182.34;1795741;79;20996;-73
2022/07/24 01:03:46;;;;;;;4.87;4.17;;;;;;;17.99;69.95;100182.85;1798498;79;21069;-72
2022/07/24 01:06:13;;;;;;;6.65;4.40;;;;;;;17.96;70.08;100188.55;1782764;79;21003;-72
2022/07/24 01:08:42;;;;;;;6.75;4.70;;;;;;;17.94;70.20;100182.52;1776858;79;21841;-71
2022/07/24 01:11:09;;;;;;;6.20;4.50;;;;;;;17.92;70.28;100183.20;1804474;79;21055;-71
2022/07/24 01:13:39;;;;;;;8.25;4.58;;;;;;;17.92;70.33;100186.39;1796956;79;21063;-72
2022/07/24 01:16:08;;;;;;;5.47;4.67;;;;;;;17.89;70.40;100178.22;1784231;79;21030;-72
2022/07/24 01:18:36;;;;;;;5.03;4.28;;;;;;;17.87;70.45;100173.56;1762917;81;21008;-72
2022/07/24 01:21:04;;;;;;;6.12;4.10;;;;;;;17.84;70.44;100170.38;1758244;81;21935;-71
2022/07/24 01:23:32;;;;;;;5.70;3.98;;;;;;;17.82;70.48;100165.72;1821860;77;21381;-71
2022/07/24 01:26:00;;;;;;;5.72;4.05;;;;;;;17.77;70.53;100174.27;1814295;77;20942;-71
2022/07/24 01:28:26;;;;;;;5.50;3.90;;;;;;;17.72;70.61;100176.11;1826701;77;21425;-73
2022/07/24 01:30:54;;;;;;;6.95;3.90;;;;;;;17.70;70.64;100181.30;1827118;77;20980;-72
2022/07/24 01:33:21;;;;;;;4.80;4.00;;;;;;;17.67;70.76;100176.28;1838896;77;21941;-72
2022/07/24 01:35:48;;;;;;;5.92;3.77;;;;;;;17.66;70.87;100179.94;1823380;77;20982;-73
2022/07/24 01:38:15;;;;;;;5.47;4.12;;;;;;;17.68;70.94;100182.78;1823092;77;21060;-72
2022/07/24 01:40:42;;;;;;;4.58;3.85;;;;;;;17.71;70.81;100181.63;1849836;77;20969;-73
2022/07/24 01:43:09;;;;;;;8.03;4.05;;;;;;;17.70;70.73;100186.14;1834072;77;20972;-72
2022/07/24 01:45:35;;;;;;;8.60;4.22;;;;;;;17.68;70.75;100187.30;1831054;77;21870;-73
2022/07/24 01:48:03;;;;;;;4.78;4.20;;;;;;;17.62;70.85;100188.80;1822569;77;20893;-73
2022/07/24 01:50:30;;;;;;;6.37;4.72;;;;;;;17.60;70.87;100187.31;1817062;77;21029;-72
2022/07/24 01:52:57;;;;;;;7.55;4.70;;;;;;;17.60;70.91;100185.98;1833571;77;21041;-72
2022/07/24 01:55:24;;;;;;;7.05;4.75;;;;;;;17.59;70.96;100177.64;1840083;77;20981;-72
2022/07/24 01:57:50;;;;;;;6.50;4.80;;;;;;;17.59;70.90;100180.31;1809504;77;21861;-72
2022/07/24 02:00:17;;;;;;;7.47;5.30;;;;;;;17.60;70.76;100183.31;1816241;77;21029;-72
2022/07/24 02:02:44;;;;;;;7.33;5.05;;;;;;;17.61;70.65;100180.47;1817697;77;20934;-73
2022/07/24 02:05:13;;;;;;;5.90;4.90;;;;;;;17.60;70.65;100176.13;1819866;77;21455;-72
2022/07/24 02:07:42;;;;;;;6.10;4.85;;;;;;;17.59;70.82;100181.65;1794357;77;20973;-72
2022/07/24 02:10:10;;;;;;;5.97;5.37;;;;;;;17.58;70.82;100181.32;1816728;77;21932;-72
2022/07/24 02:12:36;;;;;;;9.35;6.37;;;;;;;17.59;70.80;100181.65;1847526;77;20990;-72
2022/07/24 02:15:05;;;;;;;10.13;6.05;;;;;;;17.60;70.77;100186.81;1845092;77;21072;-73
2022/07/24 02:17:33;;;;;;;6.60;6.00;;;;;;;17.63;70.74;100190.47;1821292;77;20954;-73
2022/07/24 02:19:59;;;;;;;6.90;6.20;;;;;;;17.61;70.84;100189.81;1819273;77;21499;-72
2022/07/24 02:22:25;;;;;;;7.72;5.92;;;;;;;17.57;70.90;100188.50;1837694;77;21905;-73
2022/07/24 02:24:52;;;;;;;6.35;5.72;;;;;;;17.54;70.89;100186.66;1784447;80;21012;-73
2022/07/24 02:27:19;;;;;;;6.20;5.60;;;;;;;17.51;70.89;100186.51;1766433;79;20984;-73
2022/07/24 02:29:47;;;;;;;6.75;6.00;;;;;;;17.50;70.88;100191.52;1767079;79;21004;-72
2022/07/24 02:32:13;;;;;;;6.53;5.47;;;;;;;17.49;70.94;100201.04;1771733;80;20936;-71
2022/07/24 02:34:41;;;;;;;7.28;5.90;;;;;;;17.48;71.03;100208.72;1792927;80;20976;-71
2022/07/24 02:37:08;;;;;;;7.65;6.10;;;;;;;17.46;71.06;100215.55;1770307;80;21051;-72
2022/07/24 02:39:34;;;;;;;7.35;5.58;;;;;;;17.42;71.14;100212.39;1792928;80;20988;-71
2022/07/24 02:42:00;;;;;;;10.18;6.30;;;;;;;17.42;71.23;100208.89;1790537;80;21004;-71
2022/07/24 02:44:27;;;;;;;7.85;6.83;;;;;;;17.42;71.30;100208.89;1793019;80;21042;-72
2022/07/24 02:46:53;;;;;;;10.58;6.85;;;;;;;17.42;71.36;100207.05;1781247;80;22322;-71
2022/07/24 02:49:20;;;;;;;8.75;6.72;;;;;;;17.45;71.32;100210.70;1780031;80;20945;-72
2022/07/24 02:51:46;;;;;;;9.68;7.35;;;;;;;17.48;71.31;100212.73;1793041;80;21001;-72
2022/07/24 02:54:13;;;;;;;8.20;6.87;;;;;;;17.50;71.35;100215.55;1784724;80;21102;-72
2022/07/24 02:56:39;;;;;;;8.60;7.10;;;;;;;17.54;71.32;100204.02;1784446;80;21032;-72
2022/07/24 02:59:06;;;;;;;7.85;7.00;;;;;;;17.58;71.28;100199.52;1767461;80;21915;-73
2022/07/24 03:01:33;;;;;;;7.55;6.85;;;;;;;17.61;71.26;100196.48;1778648;80;20967;-72
2022/07/24 03:04:00;;;;;;;7.83;7.10;;;;;;;17.65;71.22;100203.14;1785454;80;20996;-72
2022/07/24 03:06:26;;;;;;;7.90;6.80;;;;;;;17.68;71.22;100205.49;1781691;80;21507;-73
2022/07/24 03:08:54;;;;;;;10.15;7.55;;;;;;;17.70;71.17;100197.33;1792960;80;20976;-72
2022/07/24 03:11:21;;;;;;;9.50;8.05;;;;;;;17.74;71.10;100199.98;1790442;80;22582;-72
2022/07/24 03:13:47;;;;;;;9.10;8.20;;;;;;;17.77;71.20;100196.15;1794041;79;20987;-72
2022/07/24 03:16:15;;;;;;;8.85;8.05;;;;;;;17.76;71.30;100192.65;1800800;79;21414;-72
2022/07/24 03:18:45;;;;;;;9.83;7.85;;;;;;;17.78;71.42;100197.31;1794747;79;20951;-72
2022/07/24 03:21:16;;;;;;;8.98;7.90;;;;;;;17.80;71.39;100189.95;1753711;81;20957;-72
2022/07/24 03:23:43;;;;;;;9.18;8.18;;;;;;;17.85;71.27;100184.91;1805223;79;21831;-72
2022/07/24 03:26:10;;;;;;;9.65;8.63;;;;;;;17.91;71.12;100186.06;1798744;79;21002;-72
2022/07/24 03:28:37;;;;;;;9.03;8.13;;;;;;;17.95;71.12;100196.72;1813964;78;21036;-72
2022/07/24 03:31:03;;;;;;;8.80;7.90;;;;;;;17.97;71.11;100198.73;1791621;79;20957;-72
2022/07/24 03:33:30;;;;;;;8.78;7.90;;;;;;;18.01;70.99;100198.20;1808631;79;20969;-72
2022/07/24 03:35:58;;;;;;;9.33;8.40;;;;;;;18.04;70.82;100193.00;1805714;79;21888;-72
2022/07/24 03:38:24;;;;;;;9.88;8.88;;;;;;;18.10;70.66;100192.82;1802223;79;20945;-74
2022/07/24 03:40:51;;;;;;;10.58;9.58;;;;;;;18.16;70.49;100195.64;1815559;79;20941;-72
2022/07/24 03:43:19;;;;;;;10.28;9.38;;;;;;;18.22;70.41;100196.25;1809453;78;21499;-72
2022/07/24 03:45:46;;;;;;;10.58;9.58;;;;;;;18.29;70.34;100203.08;1788258;79;21510;-72
2022/07/24 03:48:12;;;;;;;10.80;9.85;;;;;;;18.36;70.40;100205.89;1786308;79;21753;-72
2022/07/24 03:50:39;;;;;;;11.78;9.53;;;;;;;18.41;70.49;100191.47;1788268;79;20995;-72
2022/07/24 03:53:05;;;;;;;8.85;8.15;;;;;;;18.47;70.47;100189.44;1789239;79;21042;-73
2022/07/24 03:55:31;;;;;;;12.55;8.53;;;;;;;18.52;70.38;100178.52;1776857;79;20968;-72
2022/07/24 03:57:58;;;;;;;9.53;8.70;;;;;;;18.60;70.26;100178.97;1810805;79;20960;-72
2022/07/24 04:00:24;;;;;;;11.15;9.85;;;;;;;18.68;70.28;100173.59;1815980;79;21876;-73
2022/07/24 04:02:51;;;;;;;10.95;9.85;;;;;;;18.76;70.22;100168.69;1811063;79;20967;-73
2022/07/24 04:05:19;;;;;;;11.25;10.08;;;;;;;18.84;70.25;100180.16;1789200;79;21513;-72
2022/07/24 04:07:46;;;;;;;9.33;8.50;;;;;;;18.92;70.19;100170.41;1818462;78;21030;-72
2022/07/24 04:10:12;;;;;;;9.65;8.75;;;;;;;19.02;70.01;100182.52;1818599;77;20920;-72
2022/07/24 04:12:40;;;;;;;9.68;8.68;;;;;;;19.10;69.91;100175.73;1808085;79;21968;-72
2022/07/24 04:15:08;;;;;;;11.03;8.33;;;;;;;19.20;69.82;100172.80;1819981;77;21018;-72
2022/07/24 04:17:40;;;;;;;11.08;8.30;;;;;;;19.29;69.66;100170.86;1824975;77;20950;-71
2022/07/24 04:20:09;;;;;;;8.50;7.70;;;;;;;19.39;69.49;100174.94;1827706;77;21186;-71
2022/07/24 04:22:36;;;;;;;8.50;7.53;;;;;;;19.50;69.32;100174.19;1816366;77;21527;-72
2022/07/24 04:25:04;;;;;;;8.55;7.75;;;;;;;19.60;69.40;100170.75;1822122;77;21929;-71
2022/07/24 04:27:31;;;;;;;9.30;8.40;;;;;;;19.69;69.50;100167.80;1818285;77;20934;-72
2022/07/24 04:29:59;;;;;;;8.00;7.33;;;;;;;19.80;69.58;100165.14;1816311;79;20966;-72
2022/07/24 04:32:25;;;;;;;8.53;7.83;;;;;;;19.92;69.55;100170.34;1820320;77;21051;-73
2022/07/24 04:34:52;;;;;;;8.73;7.92;;;;;;;20.05;69.49;100168.83;1812305;78;20980;-72
2022/07/24 04:37:18;;;;;;;8.80;7.90;;;;;;;20.18;69.44;100171.17;1819761;77;21877;-72
2022/07/24 04:39:45;;;;;;;9.25;8.45;;;;;;;20.31;69.15;100169.14;1812973;78;20938;-73
2022/07/24 04:42:12;;;;;;;9.10;8.20;;;;;;;20.42;68.94;100167.81;1800220;78;21003;-72
2022/07/24 04:44:38;;;;;;;9.05;8.25;;;;;;;20.55;68.66;100176.84;1827511;78;20971;-72
2022/07/24 04:47:05;;;;;;;9.83;8.83;;;;;;;20.67;68.52;100173.16;1806449;78;20947;-75
2022/07/24 04:49:32;;;;;;;9.10;8.10;;;;;;;20.82;68.36;100173.07;1816410;77;22330;-71
2022/07/24 04:51:59;;;;;;;9.10;8.25;;;;;;;20.96;68.08;100182.09;1821906;78;21007;-71
2022/07/24 04:54:27;;;;;;;10.63;9.63;;;;;;;21.09;67.89;100183.02;1818650;78;21397;-73
2022/07/24 04:56:54;;;;;;;10.53;9.63;;;;;;;21.22;67.89;100183.61;1775647;80;20997;-72
2022/07/24 04:59:20;;;;;;;11.05;9.98;;;;;;;21.35;67.82;100181.59;1786404;79;20949;-72
2022/07/24 05:01:48;;;;;;;10.95;9.85;;;;;;;21.48;67.68;100182.17;1820672;77;22552;-73
2022/07/24 05:04:14;;;;;;;11.45;10.45;;;;;;;21.60;67.65;100176.55;1785836;80;21380;-72
2022/07/24 05:06:41;;;;;;;11.83;10.72;;;;;;;21.71;67.40;100180.02;1775035;80;20941;-72
2022/07/24 05:09:08;;;;;;;13.03;11.83;;;;;;;21.82;67.46;100175.45;1807238;78;20992;-71
2022/07/24 05:11:34;;;;;;;10.90;10.00;;;;;;;21.95;67.41;100174.16;1812071;78;20985;-71
2022/07/24 05:14:01;;;;;;;10.90;9.80;;;;;;;22.11;67.32;100181.09;1785174;78;22328;-72
2022/07/24 05:16:27;;;;;;;9.73;8.70;;;;;;;22.24;67.03;100175.73;1799964;78;20976;-72
2022/07/24 05:18:55;;;;;;;10.38;9.38;;;;;;;22.37;66.55;100177.62;1806785;78;20942;-72
2022/07/24 05:21:21;;;;;;;9.80;8.88;;;;;;;22.52;66.39;100169.39;1800428;78;20946;-72
2022/07/24 05:23:49;;;;;;;7.17;5.90;;;;;;;22.65;66.25;100166.70;1806133;78;20991;-72
2022/07/24 05:26:15;;;;;;;8.53;7.78;;;;;;;22.80;65.84;100176.78;1827542;78;21911;-72
2022/07/24 05:28:42;;;;;;;10.70;9.70;;;;;;;22.95;65.12;100177.11;1801842;78;20992;-72
2022/07/24 05:31:08;;;;;;;9.05;8.25;;;;;;;23.14;65.50;100181.66;1818014;78;20971;-72
2022/07/24 05:33:35;;;;;;;8.48;7.78;;;;;;;23.28;65.19;100174.42;1821246;77;20999;-71
2022/07/24 05:36:02;;;;;;;7.58;6.87;;;;;;;23.41;64.82;100167.64;1799709;79;20995;-71
2022/07/24 05:38:28;;;;;;;7.55;5.80;;;;;;;23.54;64.43;100169.47;1783617;79;22331;-72
2022/07/24 05:40:56;;;;;;;8.73;5.83;;;;;;;23.68;63.85;100167.09;1753017;81;21403;-72
2022/07/24 05:43:22;;;;;;;6.47;5.70;;;;;;;23.84;63.60;100159.89;1782152;80;21324;-73
2022/07/24 05:45:49;;;;;;;7.72;6.47;;;;;;;23.96;62.67;100159.52;1775094;79;20995;-74
2022/07/24 05:48:16;;;;;;;6.42;5.40;;;;;;;24.07;63.13;100151.27;1790831;79;21024;-72
2022/07/24 05:50:42;;;;;;;5.12;4.42;;;;;;;24.16;62.94;100147.80;1781448;79;21826;-73
2022/07/24 05:53:09;;;;;;;4.83;4.33;;;;;;;24.25;61.73;100146.51;1814065;79;21024;-73
2022/07/24 05:55:35;;;;;;;4.37;3.85;;;;;;;24.34;60.66;100151.98;1803983;79;21020;-73
2022/07/24 05:58:03;;;;;;;5.83;4.05;;;;;;;24.42;59.35;100149.04;1801552;79;21383;-73
2022/07/24 06:00:31;;;;;;;4.42;3.67;;;;;;;24.52;58.91;100156.66;1774234;79;20964;-73
2022/07/24 06:02:57;;;;;;;4.75;3.85;;;;;;;24.62;58.81;100152.13;1803003;79;22474;-73
2022/07/24 06:05:23;;;;;;;6.00;4.33;;;;;;;24.73;58.43;100152.23;1804455;79;20984;-72
2022/07/24 06:07:52;;;;;;;5.37;4.37;;;;;;;24.83;57.87;100156.63;1777706;79;20984;-73
2022/07/24 06:10:20;;;;;;;4.83;3.60;;;;;;;24.92;57.35;100158.53;1776235;79;21015;-73
2022/07/24 06:12:46;;;;;;;4.70;3.50;;;;;;;24.99;56.30;100158.45;1802714;79;20999;-73
2022/07/24 06:15:13;;;;;;;4.37;3.65;;;;;;;25.02;55.54;100156.19;1803977;79;21949;-73
2022/07/24 06:17:41;;;;;;;3.65;3.27;;;;;;;25.09;55.43;100150.70;1782243;79;21530;-73
2022/07/24 06:20:12;;;;;;;5.58;3.80;;;;;;;25.18;55.50;100146.66;1779239;79;21518;-73
2022/07/24 06:22:41;;;;;;;5.35;3.80;;;;;;;25.28;55.61;100135.34;1772542;81;20991;-73
2022/07/24 06:25:08;;;;;;;5.33;3.58;;;;;;;25.39;55.26;100145.44;1772933;79;21593;-73
2022/07/24 06:27:46;;;;;;;5.08;2.40;;;;;;;25.48;54.87;100143.23;1840038;77;21897;-73
2022/07/24 06:30:18;;;;;;;5.72;2.30;;;;;;;25.55;53.76;100141.30;1834835;77;21437;-73
2022/07/24 06:32:45;;;;;;;6.37;2.10;;;;;;;25.65;53.60;100141.59;1849713;77;26784;-71
2022/07/24 06:35:12;;;;;;;4.42;2.08;;;;;;;25.74;52.59;100144.33;1840668;77;21431;-72
2022/07/24 06:37:39;;;;;;;3.95;1.98;;;;;;;25.79;51.89;100142.31;1819074;77;21499;-72
2022/07/24 06:40:06;;;;;;;3.15;2.20;;;;;;;25.87;52.17;100137.42;1816181;77;22017;-72
2022/07/24 06:42:34;;;;;;;4.55;2.00;;;;;;;25.99;52.17;100136.12;1844986;77;21026;-72
2022/07/24 06:45:01;;;;;;;4.28;2.33;;;;;;;26.09;51.96;100140.98;1840611;77;20930;-71
2022/07/24 06:47:27;;;;;;;2.72;2.25;;;;;;;26.16;51.92;100135.78;1816205;77;21021;-72
2022/07/24 06:49:54;;;;;;;3.20;2.30;;;;;;;26.27;51.63;100134.17;1848810;77;20978;-71
2022/07/24 06:52:20;;;;;;;3.22;2.40;;;;;;;26.37;51.22;100128.20;1833719;77;21911;-72
2022/07/24 06:54:47;;;;;;;2.75;2.08;;;;;;;26.43;50.21;100127.29;1835634;77;20966;-72
2022/07/24 06:57:16;;;;;;;3.00;2.55;;;;;;;26.48;50.85;100116.59;1841367;77;20969;-72
2022/07/24 06:59:43;;;;;;;2.70;2.10;;;;;;;26.56;50.94;100105.44;1819354;77;21053;-73
2022/07/24 07:02:11;;;;;;;3.60;2.05;;;;;;;26.63;50.01;100102.06;1820453;77;20990;-72
2022/07/24 07:04:39;;;;;;;4.72;2.30;;;;;;;26.69;49.33;100099.78;1831278;77;21268;-72
2022/07/24 07:07:05;;;;;;;3.35;2.20;;;;;;;26.77;50.07;100101.33;1816011;79;20846;-72
2022/07/24 07:09:35;;;;;;;3.55;2.60;;;;;;;26.88;51.12;100099.16;1817594;77;20978;-72
2022/07/24 07:12:04;;;;;;;3.75;2.33;;;;;;;27.00;50.12;100090.48;1839344;77;20982;-73
2022/07/24 07:14:30;;;;;;;3.60;2.75;;;;;;;27.06;49.01;100090.94;1823171;77;20973;-72
2022/07/24 07:16:58;;;;;;;4.50;2.52;;;;;;;27.09;49.36;100086.39;1816473;77;21421;-72
2022/07/24 07:19:27;;;;;;;6.12;2.30;;;;;;;27.08;49.64;100083.38;1816846;77;21004;-74
2022/07/24 07:21:53;;;;;;;19.15;3.27;;;;;;;27.13;49.48;100088.64;1822644;77;21100;-73
2022/07/24 07:24:20;;;;;;;17.95;2.40;;;;;;;27.19;48.50;100093.92;1836282;77;21033;-73
2022/07/24 07:26:46;;;;;;;4.28;2.40;;;;;;;27.26;48.49;100091.09;1832919;77;21112;-74
2022/07/24 07:29:13;;;;;;;12.07;2.70;;;;;;;27.33;47.58;100094.52;1831592;77;21859;-73
2022/07/24 07:31:39;;;;;;;5.55;2.00;;;;;;;27.29;47.17;100095.50;1849251;77;20962;-73
2022/07/24 07:34:06;;;;;;;3.00;2.10;;;;;;;27.26;47.00;100100.05;1834152;77;21056;-73
2022/07/24 07:36:33;;;;;;;2.75;1.85;;;;;;;27.26;47.12;100091.92;1839813;77;20982;-73
2022/07/24 07:39:01;;;;;;;4.22;2.40;;;;;;;27.26;46.87;100093.80;1824801;77;20978;-73
2022/07/24 07:41:27;;;;;;;5.33;2.17;;;;;;;27.27;47.13;100098.16;1820899;77;21905;-72
2022/07/24 07:43:54;;;;;;;4.00;2.20;;;;;;;27.35;47.30;100094.56;1820914;77;20975;-73
2022/07/24 07:46:21;;;;;;;2.95;2.37;;;;;;;27.46;48.35;100094.23;1830393;77;20933;-71
2022/07/24 07:48:47;;;;;;;2.80;2.45;;;;;;;27.59;48.54;100095.31;1846779;77;20962;-72
2022/07/24 07:51:14;;;;;;;3.87;2.40;;;;;;;27.69;47.08;100089.84;1849980;77;21009;-73
2022/07/24 07:53:41;;;;;;;3.52;2.42;;;;;;;27.74;46.86;100090.77;1849859;77;21920;-73
2022/07/24 07:56:07;;;;;;;4.70;2.25;;;;;;;27.74;47.21;100089.42;1847586;77;20958;-71
2022/07/24 07:58:34;;;;;;;6.40;2.55;;;;;;;27.87;47.62;100091.84;1828571;77;20926;-74
2022/07/24 08:01:01;;;;;;;4.40;1.98;;;;;;;27.99;46.68;100090.95;1822605;77;20919;-73
2022/07/24 08:03:28;;;;;;;4.50;2.00;;;;;;;28.13;46.74;100087.72;1819928;77;21052;-74
2022/07/24 08:05:54;;;;;;;4.78;2.08;;;;;;;28.27;47.29;100090.11;1830362;77;22436;-74
2022/07/24 08:08:21;;;;;;;5.37;2.20;;;;;;;28.42;46.46;100092.61;1844440;77;20843;-73
2022/07/24 08:10:48;;;;;;;5.05;2.27;;;;;;;28.51;45.27;100085.70;1833969;77;21447;-73
2022/07/24 08:13:14;;;;;;;8.95;2.50;;;;;;;28.54;45.68;100082.19;1819743;77;21371;-73
2022/07/24 08:15:41;;;;;;;6.22;2.00;;;;;;;28.50;45.34;100088.13;1806205;79;21458;-74
2022/07/24 08:18:08;;;;;;;4.45;1.80;;;;;;;28.37;45.18;100088.42;1835924;77;21897;-73
2022/07/24 08:20:35;;;;;;;6.22;1.90;;;;;;;28.18;44.72;100094.61;1849825;77;20985;-75
2022/07/24 08:23:01;;;;;;;3.08;1.70;;;;;;;28.04;45.08;100087.00;1825262;77;20944;-73
2022/07/24 08:25:29;;;;;;;3.58;1.60;;;;;;;27.99;45.58;100086.38;1849900;77;21426;-71
2022/07/24 08:27:56;;;;;;;3.98;1.82;;;;;;;28.06;46.17;100086.21;1849917;77;21113;-72
2022/07/24 08:30:25;;;;;;;4.30;1.67;;;;;;;28.16;46.40;100087.22;1849905;77;22569;-73
2022/07/24 08:32:51;;;;;;;2.10;1.80;;;;;;;28.20;45.97;100080.78;1849778;77;21508;-73
2022/07/24 08:35:18;;;;;;;2.50;1.80;;;;;;;28.16;45.52;100080.43;1825421;77;20962;-72
2022/07/24 08:37:45;;;;;;;4.03;2.20;;;;;;;28.08;45.74;100074.56;1816328;79;20955;-73
2022/07/24 08:40:12;;;;;;;2.33;1.80;;;;;;;28.04;46.50;100067.99;1816187;79;21430;-74
2022/07/24 08:42:40;;;;;;;3.52;1.70;;;;;;;28.14;46.47;100074.96;1816372;79;20974;-72
2022/07/24 08:45:08;;;;;;;2.72;1.92;;;;;;;28.28;46.37;100072.75;1816242;79;21072;-74
2022/07/24 08:47:34;;;;;;;3.45;2.15;;;;;;;28.38;45.99;100071.09;1816625;79;21349;-73
2022/07/24 08:50:04;;;;;;;5.78;1.90;;;;;;;28.42;45.83;100066.80;1816138;79;20958;-72
2022/07/24 08:52:31;;;;;;;7.55;2.08;;;;;;;28.39;45.40;100071.91;1843918;77;20946;-72
2022/07/24 08:54:57;;;;;;;3.75;1.80;;;;;;;28.38;44.88;100064.83;1815254;77;21821;-73
2022/07/24 08:57:24;;;;;;;5.37;2.00;;;;;;;28.49;45.84;100059.84;1769296;80;20979;-73
2022/07/24 08:59:50;;;;;;;4.90;2.20;;;;;;;28.66;45.05;100063.89;1799516;79;20988;-73
2022/07/24 09:02:17;;;;;;;4.35;2.20;;;;;;;28.80;45.57;100067.94;1799135;79;21036;-73
2022/07/24 09:04:46;;;;;;;4.00;2.22;;;;;;;28.96;44.83;100064.95;1739350;81;20948;-73
2022/07/24 09:07:25;;;;;;;13.72;2.25;;;;;;;29.10;45.05;100062.14;1799495;79;21899;-73
2022/07/24 09:10:02;;;;;;;4.10;2.02;;;;;;;29.22;44.32;100059.30;1816076;77;20978;-74
2022/07/24 09:12:41;;;;;;;3.20;2.10;;;;;;;29.31;43.45;100061.33;1809597;79;21006;-73
2022/07/24 09:15:23;;;;;;;6.72;2.02;;;;;;;29.41;43.12;100060.64;1834087;77;21029;-73
2022/07/24 09:17:54;;;;;;;5.00;2.05;;;;;;;29.50;43.73;100059.69;1850126;77;21464;-73
2022/07/24 09:20:21;;;;;;;5.20;2.20;;;;;;;29.55;43.42;100063.31;1849543;77;21467;-73
2022/07/24 09:22:48;;;;;;;4.00;2.55;;;;;;;29.67;42.79;100058.27;1849753;77;20975;-73
2022/07/24 09:25:19;;;;;;;4.55;2.52;;;;;;;29.75;43.64;100055.09;1816858;77;21396;-73
2022/07/24 09:27:57;;;;;;;9.35;2.70;;;;;;;29.88;43.22;100050.59;1821339;77;21021;-73
2022/07/24 09:30:38;;;;;;;8.45;2.47;;;;;;;29.96;43.32;100054.22;1848961;77;20938;-73
2022/07/24 09:33:15;;;;;;;5.58;2.90;;;;;;;30.07;42.75;100049.72;1849676;77;21828;-73
2022/07/24 09:35:49;;;;;;;3.05;2.70;;;;;;;30.16;42.30;100049.00;1827208;77;20912;-73
2022/07/24 09:38:20;;;;;;;4.33;2.70;;;;;;;30.24;41.12;100044.98;1822106;77;20967;-73
2022/07/24 09:40:56;;;;;;;4.65;2.87;;;;;;;30.26;42.23;100045.54;1821949;78;20999;-73
2022/07/24 09:43:31;;;;;;;4.42;3.10;;;;;;;30.40;42.85;100039.10;1821016;77;20940;-73
2022/07/24 09:46:08;;;;;;;5.03;3.30;;;;;;;30.55;42.47;100033.78;1821535;78;21885;-72
2022/07/24 09:48:40;;;;;;;97.80;7.08;;;;;;;30.69;41.93;100036.89;1800042;79;20926;-73
2022/07/24 09:51:12;;;;;;;8.08;3.60;;;;;;;30.78;41.34;100036.68;1816779;78;21543;-73
2022/07/24 09:53:41;;;;;;;15.85;3.75;;;;;;;30.88;40.35;100036.74;1764055;79;20997;-73
2022/07/24 09:56:16;;;;;;;12.50;3.60;;;;;;;30.90;40.60;100037.87;1789545;79;21046;-73
2022/07/24 09:58:48;;;;;;;9.08;3.15;;;;;;;30.96;40.57;100029.43;1769504;79;21855;-73
2022/07/24 10:01:17;;;;;;;9.00;3.58;;;;;;;30.98;39.37;100031.38;1788232;80;20939;-73
2022/07/24 10:03:45;;;;;;;7.78;3.85;;;;;;;30.94;40.84;100026.16;1737969;81;20971;-73
2022/07/24 10:06:17;;;;;;;10.93;4.65;;;;;;;30.98;39.85;100022.34;1744755;81;20981;-73
2022/07/24 10:08:47;;;;;;;9.10;4.90;;;;;;;31.00;39.93;100032.47;1789915;79;20928;-73
2022/07/24 10:11:13;;;;;;;6.17;3.85;;;;;;;31.04;39.40;100030.84;1768557;81;21926;-73
2022/07/24 10:13:41;;;;;;;9.68;4.33;;;;;;;31.12;40.50;100035.80;1789637;80;20843;-73
2022/07/24 10:16:26;;;;;;;10.48;4.08;;;;;;;31.33;40.53;100037.55;1776626;79;21068;-73
2022/07/24 10:19:03;;;;;;;7.80;3.30;;;;;;;31.49;40.85;100030.80;1796762;78;21049;-73
2022/07/24 10:21:35;;;;;;;7.75;3.35;;;;;;;31.67;39.71;100033.05;1783405;79;20990;-73
2022/07/24 10:24:35;;;;;;;8.28;3.30;;;;;;;31.76;39.44;100025.17;1822028;78;21927;-72
2022/07/24 10:27:04;;;;;;;4.60;3.00;;;;;;;31.93;39.17;100019.45;1799684;79;20934;-72
2022/07/24 10:29:34;;;;;;;8.43;3.20;;;;;;;31.94;37.31;100021.08;1821941;78;21070;-72
2022/07/24 10:32:01;;;;;;;5.65;2.85;;;;;;;31.93;38.67;100024.36;1799692;78;20982;-72
2022/07/24 10:34:46;;;;;;;8.65;3.15;;;;;;;32.07;38.73;100017.84;1800752;78;21096;-72
2022/07/24 10:37:43;;;;;;;6.90;2.72;;;;;;;32.20;39.09;100017.28;1816523;79;20927;-73
2022/07/24 10:40:45;;;;;;;33.90;4.10;;;;;;;32.37;38.46;100012.95;1815190;79;20941;-72
2022/07/24 10:43:15;;;;;;;7.37;3.00;;;;;;;32.54;38.84;100014.03;1816467;79;20942;-72
2022/07/24 10:45:47;;;;;;;6.20;2.67;;;;;;;32.67;37.17;100017.55;1816454;79;20958;-72
2022/07/24 10:48:25;;;;;;;5.30;2.92;;;;;;;32.59;36.11;100011.27;1801779;79;20946;-73
2022/07/24 10:51:11;;;;;;;4.47;2.98;;;;;;;32.41;36.21;100006.64;1823189;77;21800;-72
2022/07/24 10:53:49;;;;;;;3.25;2.42;;;;;;;32.38;36.68;100007.75;1826144;77;21013;-72
2022/07/24 10:56:38;;;;;;;7.08;2.67;;;;;;;32.43;36.54;100005.84;1815512;78;20965;-72
2022/07/24 10:59:10;;;;;;;7.15;2.52;;;;;;;32.41;36.99;99996.25;1807247;77;21371;-73
2022/07/24 11:01:53;;;;;;;6.92;2.47;;;;;;;32.23;36.29;99994.87;1799924;79;21079;-73
2022/07/24 11:04:24;;;;;;;;;;;;;;;32.10;37.84;99999.52;1802702;79;21809;-73
2022/07/24 11:06:55;;;;;;;6.20;2.75;;;;;;;32.18;38.03;99998.98;1820017;77;20842;-73
2022/07/24 11:09:25;;;;;;;3.15;2.70;;;;;;;32.17;36.46;99992.70;1817022;79;20949;-73
2022/07/24 11:11:57;;;;;;;4.60;2.45;;;;;;;32.23;37.86;99994.87;1816754;79;20942;-73
2022/07/24 11:14:42;;;;;;;7.15;2.50;;;;;;;32.43;37.84;99989.44;1816573;79;20938;-72
2022/07/24 11:17:43;;;;;;;4.42;2.42;;;;;;;32.59;35.69;99989.39;1816507;79;21813;-72
2022/07/24 11:20:13;;;;;;;4.90;2.35;;;;;;;32.53;35.79;99982.32;1816388;79;20974;-73
2022/07/24 11:22:53;;;;;;;6.10;2.70;;;;;;;32.38;35.17;99979.87;1819369;77;21476;-73
2022/07/24 11:25:23;;;;;;;4.75;2.42;;;;;;;32.33;36.42;99979.89;1848552;77;21187;-72
2022/07/24 11:27:58;;;;;;;6.12;2.40;;;;;;;32.50;37.32;99975.47;1849709;77;20985;-73
2022/07/24 11:30:28;;;;;;;5.85;2.70;;;;;;;32.82;36.95;99972.40;1850090;77;21869;-72
2022/07/24 11:32:55;;;;;;;9.40;3.10;;;;;;;33.13;36.38;99976.41;1824007;77;20835;-72